Emlenton, PA (16373)

9:30 PM EDT on September 04, 2015 (GMT -0400)
Kaylor | | Change Station
CLOSE
Current Station
Personal Weather Station
Location: Chicora, PA
Elevation: 1329 ft
Nearby Weather Stations

Elev 1329 ft 40.98 °N, 79.66 °W | Updated 2 minutes ago

Thunderstorm
Thunderstorm
66.7 °F
Feels Like 66.7 °F
N
0.0
Wind Variable Wind from ESE
Gusts 0.0 mph

Today
High -- | Low -- °F
--% Chance of Precip.
Yesterday
High -- | Low -- °F
Precip. -- in
6:48 AM 7:47 PM
Waning Gibbous, 54% visible
Pressure 30.19 in
Visibility 3.0 miles
Clouds Few 7500 ft
Mostly Cloudy 9000 ft
Overcast 12000 ft
Dew Point 65 °F
Humidity 93%
Rainfall 0.00 in
Snow Depth Not available.
UV 0 out of 12
Pollen 8.70 out of 12
Air Quality Not available.
Flu Activity Not available.
METAR KFKL 050115Z AUTO 00000KT 3SM FEW075 BKN090 OVC120 19/17 A3019 RMK AO1 LTG DSNT N P0003
Pressure 30.19 in
Visibility 3.0 miles
Clouds Few 7500 ft
Mostly Cloudy 9000 ft
Overcast 12000 ft
Dew Point 65 °F
Humidity 93%
Rainfall 0.00 in
Snow Depth Not available.
UV 0 out of 12
Pollen 8.70 out of 12
Air Quality Not available.
Flu Activity Not available.
METAR KFKL 050115Z AUTO 00000KT 3SM FEW075 BKN090 OVC120 19/17 A3019 RMK AO1 LTG DSNT N P0003

10-Day Weather Forecast

×

Almanac

Astronomy

Sep. 04, 2015 Rise Set
Actual Time
Civil Twilight
Nautical Twilight
Astronomical Twilight
Moon
Length of Visible Light
Length of Day
Tomorrow will be .
, % of the Moon is Illuminated

Today's Extremes

State Highs State Lows

Community

WunderPhotos

Upload Photos

1,852,374 photos uploaded!

WunderBlogs® & News

Nearby

Air Quality

  Air Quality AQ Index Pollutant
Not available.

Snow Depth

Station Depth Elevation

Earthquake Activity

City Distance Mag. Time & Date
Minimum magnitude displayed is 2.5.

Coastal Water Temperatures

Place Temperature

Stations

Nearby Weather Stations

Station Location Temp. Windchill Dew Point Humidity Wind Precip. Elev Updated Type